createdAt,value
2023-08-11T00:01:07.214Z,74.98
2023-08-11T00:03:35.410Z,74.95
2023-08-11T00:06:03.147Z,75.78
2023-08-11T00:08:30.814Z,75.92
2023-08-11T00:10:59.829Z,76.26
2023-08-11T00:13:27.460Z,76.50
2023-08-11T00:15:56.702Z,76.53
2023-08-11T00:18:24.410Z,75.88
2023-08-11T00:20:52.297Z,75.94
2023-08-11T00:23:20.022Z,75.17
2023-08-11T00:25:47.672Z,74.77
2023-08-11T00:28:16.719Z,74.54
2023-08-11T00:30:44.432Z,75.04
2023-08-11T00:33:12.321Z,75.17
2023-08-11T00:35:40.005Z,75.76
2023-08-11T00:38:07.620Z,75.89
2023-08-11T00:40:35.367Z,75.63
2023-08-11T00:43:03.032Z,74.94
2023-08-11T00:45:32.249Z,74.58
2023-08-11T00:48:00.139Z,73.61
2023-08-11T00:50:28.174Z,73.39
2023-08-11T00:52:56.337Z,73.76
2023-08-11T00:55:24.096Z,74.10
2023-08-11T00:57:51.803Z,75.07
2023-08-11T01:00:20.085Z,76.78
2023-08-11T01:02:49.390Z,76.91
2023-08-11T01:05:18.911Z,76.89
2023-08-11T01:07:56.032Z,76.64
2023-08-11T01:10:29.813Z,77.69
2023-08-11T01:13:02.596Z,76.38
2023-08-11T01:15:33.984Z,76.87
2023-08-11T01:18:04.254Z,75.70
2023-08-11T01:20:32.459Z,74.96
2023-08-11T01:23:02.264Z,75.71
2023-08-11T01:25:31.386Z,75.65
2023-08-11T01:28:01.311Z,73.86
2023-08-11T01:30:31.297Z,73.63
2023-08-11T01:32:59.097Z,73.71
2023-08-11T01:35:39.120Z,74.12
2023-08-11T01:38:09.728Z,76.08
2023-08-11T01:40:39.490Z,76.50
2023-08-11T01:43:08.293Z,77.25
2023-08-11T01:45:36.408Z,77.24
2023-08-11T01:48:04.674Z,78.30
2023-08-11T01:50:33.985Z,79.09
2023-08-11T01:53:01.693Z,78.99
2023-08-11T01:55:30.134Z,79.79
2023-08-11T01:58:00.362Z,79.86
2023-08-11T02:00:29.306Z,80.70
2023-08-11T02:02:58.531Z,80.67
2023-08-11T02:05:26.858Z,81.38
2023-08-11T02:07:56.677Z,80.63
2023-08-11T02:10:24.838Z,80.07
2023-08-11T02:12:52.597Z,80.60
2023-08-11T02:15:21.677Z,80.58
2023-08-11T02:17:49.927Z,80.91
2023-08-11T02:20:22.896Z,81.38
2023-08-11T02:22:51.804Z,82.25
2023-08-11T02:25:19.521Z,83.32
2023-08-11T02:27:47.188Z,84.05
2023-08-11T02:30:15.462Z,84.53
2023-08-11T02:32:46.825Z,85.10
2023-08-11T02:35:15.375Z,84.77
2023-08-11T02:37:43.319Z,85.21
2023-08-11T02:40:11.955Z,84.92
2023-08-11T02:42:40.591Z,85.46
2023-08-11T02:45:11.514Z,85.08
2023-08-11T02:47:41.441Z,85.34
2023-08-11T02:50:11.624Z,84.39
2023-08-11T02:52:39.665Z,82.79
2023-08-11T02:55:09.633Z,82.69
2023-08-11T02:57:37.968Z,83.31
2023-08-11T03:00:09.479Z,86.82
2023-08-11T03:02:37.658Z,86.84
2023-08-11T03:05:08.301Z,86.29
2023-08-11T03:07:37.714Z,87.00
2023-08-11T03:10:06.183Z,86.86
2023-08-11T03:12:34.017Z,86.69
2023-08-11T03:15:01.673Z,86.55
2023-08-11T03:17:29.434Z,87.04
2023-08-11T03:19:57.105Z,86.47
2023-08-11T03:22:24.890Z,87.00
2023-08-11T03:24:54.275Z,87.41
2023-08-11T03:27:22.009Z,87.56
2023-08-11T03:29:49.678Z,87.09
2023-08-11T03:32:17.416Z,86.31
2023-08-11T03:34:45.197Z,87.01
2023-08-11T03:37:12.905Z,87.76
2023-08-11T03:39:40.608Z,86.90
2023-08-11T03:42:11.446Z,86.22
2023-08-11T03:44:41.533Z,85.58
2023-08-11T03:47:09.175Z,85.99
2023-08-11T03:49:37.001Z,86.94
2023-08-11T03:52:04.936Z,87.62
2023-08-11T03:54:44.471Z,87.85
2023-08-11T03:57:14.912Z,88.29
2023-08-11T03:59:42.662Z,88.29
2023-08-11T04:02:10.656Z,87.67
2023-08-11T04:04:38.704Z,87.47
2023-08-11T04:07:06.683Z,86.91
2023-08-11T04:09:35.294Z,86.76
2023-08-11T04:12:03.761Z,86.14
2023-08-11T04:14:33.051Z,85.56
2023-08-11T04:17:00.877Z,85.27
2023-08-11T04:19:28.552Z,85.14
2023-08-11T04:21:56.251Z,85.07
2023-08-11T04:24:23.888Z,85.94
2023-08-11T04:26:52.223Z,86.69
2023-08-11T04:29:19.894Z,86.55
2023-08-11T04:31:49.147Z,86.93
2023-08-11T04:34:17.550Z,87.30
2023-08-11T04:36:45.971Z,86.92
2023-08-11T04:39:13.691Z,87.28
2023-08-11T04:41:41.494Z,87.41
2023-08-11T04:44:10.024Z,87.89
2023-08-11T04:46:37.760Z,88.15
2023-08-11T04:49:06.913Z,88.44
2023-08-11T04:51:34.751Z,87.99
2023-08-11T04:54:04.104Z,87.46
2023-08-11T04:56:31.903Z,87.40
2023-08-11T04:58:59.558Z,88.52
2023-08-11T05:01:27.278Z,88.91
2023-08-11T05:03:55.127Z,89.73
2023-08-11T05:06:24.175Z,90.28
2023-08-11T05:08:51.868Z,91.06
2023-08-11T05:11:19.521Z,91.39
2023-08-11T05:13:47.170Z,91.84
2023-08-11T05:16:15.009Z,91.69
2023-08-11T05:18:44.287Z,91.96
2023-08-11T05:21:12.843Z,92.14
2023-08-11T05:23:41.904Z,91.80
2023-08-11T05:26:09.728Z,92.68
2023-08-11T05:28:37.482Z,92.91
2023-08-11T05:31:05.807Z,92.77
2023-08-11T05:33:34.555Z,92.78
2023-08-11T05:36:02.718Z,92.30
2023-08-11T05:38:30.603Z,91.42
2023-08-11T05:40:59.647Z,91.87
2023-08-11T05:43:27.385Z,91.46
2023-08-11T05:45:55.104Z,92.06
2023-08-11T05:48:22.924Z,92.00
2023-08-11T05:50:51.363Z,92.01
2023-08-11T05:53:19.134Z,91.16
2023-08-11T05:55:46.805Z,90.28
2023-08-11T05:58:15.797Z,90.28
2023-08-11T06:00:43.457Z,89.89
2023-08-11T06:03:11.142Z,89.84
2023-08-11T06:05:39.488Z,90.57
2023-08-11T06:08:07.388Z,90.05
2023-08-11T06:10:35.357Z,88.36
2023-08-11T06:13:03.188Z,88.51
2023-08-11T06:15:32.273Z,89.32
2023-08-11T06:18:00.175Z,88.06
2023-08-11T06:20:40.237Z,88.30
2023-08-11T06:23:09.117Z,89.42
2023-08-11T06:25:37.038Z,88.46
2023-08-11T06:28:05.182Z,89.11
2023-08-11T06:30:34.503Z,87.94
2023-08-11T06:33:02.573Z,87.62
2023-08-11T06:35:30.789Z,87.53
2023-08-11T06:37:58.488Z,87.30
2023-08-11T06:40:26.363Z,86.22
2023-08-11T06:42:54.048Z,85.50
2023-08-11T06:45:21.769Z,85.39
2023-08-11T06:47:50.928Z,83.94
2023-08-11T06:50:18.725Z,85.16
2023-08-11T06:52:46.415Z,84.64
2023-08-11T06:55:14.132Z,84.61
2023-08-11T06:57:41.892Z,86.59
2023-08-11T07:00:10.711Z,85.57
2023-08-11T07:02:38.466Z,83.86
2023-08-11T07:05:07.939Z,83.90
2023-08-11T07:07:35.608Z,84.78
2023-08-11T07:10:04.675Z,85.52
2023-08-11T07:12:32.511Z,83.36
2023-08-11T07:15:00.280Z,83.15
2023-08-11T07:17:27.965Z,84.07
2023-08-11T07:19:55.610Z,84.07
2023-08-11T07:22:24.608Z,85.43
2023-08-11T07:24:52.315Z,83.42
2023-08-11T07:27:20.020Z,83.96
2023-08-11T07:29:47.707Z,82.96
2023-08-11T07:32:15.399Z,84.08
2023-08-11T07:34:43.117Z,82.81
2023-08-11T07:37:11.175Z,83.58
2023-08-11T07:39:40.417Z,82.55
2023-08-11T07:42:08.097Z,81.88
2023-08-11T07:44:36.050Z,81.76
2023-08-11T07:47:04.147Z,81.79
2023-08-11T07:49:32.523Z,81.36
2023-08-11T07:52:00.279Z,81.85
2023-08-11T07:54:28.081Z,81.69
2023-08-11T07:56:57.195Z,81.08
2023-08-11T07:59:24.947Z,80.82
2023-08-11T08:01:53.362Z,77.83
2023-08-11T08:04:21.289Z,78.71
2023-08-11T08:06:48.987Z,78.52
2023-08-11T08:09:16.993Z,78.47
2023-08-11T08:11:46.512Z,77.37
2023-08-11T08:14:15.773Z,77.17
2023-08-11T08:16:45.626Z,76.75
2023-08-11T08:19:15.211Z,75.63
2023-08-11T08:21:43.583Z,77.37
2023-08-11T08:24:11.511Z,77.05
2023-08-11T08:26:39.342Z,76.64
2023-08-11T08:29:07.103Z,76.77
2023-08-11T08:31:36.141Z,75.32
2023-08-11T08:34:04.117Z,75.11
2023-08-11T08:36:31.806Z,76.13
2023-08-11T08:38:59.455Z,75.15
2023-08-11T08:41:29.430Z,74.03
2023-08-11T08:43:57.502Z,73.95
2023-08-11T08:46:29.493Z,73.97
2023-08-11T08:49:06.533Z,74.74
2023-08-11T08:51:34.598Z,72.80
2023-08-11T08:54:02.565Z,73.26
2023-08-11T08:56:30.683Z,73.68
2023-08-11T08:58:58.560Z,73.50
2023-08-11T09:01:26.572Z,73.42
2023-08-11T09:03:54.795Z,74.09
2023-08-11T09:06:24.025Z,73.59
2023-08-11T09:08:51.693Z,73.81
2023-08-11T09:11:20.057Z,72.92
2023-08-11T09:13:48.008Z,73.00
2023-08-11T09:16:16.217Z,73.94
2023-08-11T09:18:45.180Z,74.90
2023-08-11T09:21:13.997Z,72.24
2023-08-11T09:23:44.782Z,70.79
2023-08-11T09:26:12.397Z,67.24
2023-08-11T09:28:41.538Z,68.43
2023-08-11T09:31:09.249Z,67.53
2023-08-11T09:33:37.158Z,64.64
2023-08-11T09:36:04.973Z,64.91
2023-08-11T09:38:32.724Z,64.40
2023-08-11T09:41:04.179Z,62.85
2023-08-11T09:43:32.750Z,64.16
2023-08-11T09:46:01.695Z,64.17
2023-08-11T09:48:30.730Z,65.15
2023-08-11T09:50:59.252Z,65.12
2023-08-11T09:53:28.141Z,65.02
2023-08-11T09:55:57.398Z,65.50
2023-08-11T09:58:28.470Z,64.41
2023-08-11T10:01:04.128Z,63.40
2023-08-11T10:03:45.236Z,63.28
2023-08-11T10:06:17.643Z,63.46
2023-08-11T10:08:46.777Z,63.31
2023-08-11T10:11:15.596Z,63.44
2023-08-11T10:13:45.124Z,61.86
2023-08-11T10:16:14.163Z,61.09
2023-08-11T10:18:42.154Z,58.97
2023-08-11T10:21:10.053Z,59.32
2023-08-11T10:23:38.464Z,57.84
2023-08-11T10:26:06.279Z,58.82
2023-08-11T10:28:34.450Z,59.13
2023-08-11T10:31:06.706Z,59.22
2023-08-11T10:33:36.454Z,59.23
2023-08-11T10:36:04.696Z,58.79
2023-08-11T10:38:33.653Z,60.57
2023-08-11T10:41:02.195Z,60.37
2023-08-11T10:43:33.424Z,59.64
2023-08-11T10:46:24.660Z,59.45
2023-08-11T10:48:53.206Z,59.66
2023-08-11T10:51:28.883Z,59.02
2023-08-11T10:53:58.021Z,59.33
2023-08-11T10:56:30.044Z,59.70
2023-08-11T10:59:14.229Z,58.90
2023-08-11T11:01:44.410Z,58.51
2023-08-11T11:04:13.288Z,60.04
2023-08-11T11:06:41.710Z,58.91
2023-08-11T11:09:09.597Z,58.27
2023-08-11T11:11:38.638Z,58.89
2023-08-11T11:14:06.567Z,58.81
2023-08-11T11:16:34.677Z,59.59
2023-08-11T11:19:04.689Z,58.50
2023-08-11T11:21:32.956Z,57.67
2023-08-11T11:24:00.847Z,57.62
2023-08-11T11:26:29.898Z,55.84
2023-08-11T11:28:59.533Z,55.59
2023-08-11T11:31:28.862Z,57.71
2023-08-11T11:33:57.030Z,58.39
2023-08-11T11:36:26.482Z,55.46
2023-08-11T11:38:54.204Z,56.00
2023-08-11T11:41:22.559Z,55.52
2023-08-11T11:43:51.363Z,54.97
2023-08-11T11:46:21.281Z,55.69
2023-08-11T11:48:49.969Z,55.42
2023-08-11T11:51:19.746Z,56.00
2023-08-11T11:53:51.725Z,55.89
2023-08-11T11:56:19.966Z,56.38
2023-08-11T11:58:48.701Z,56.25
2023-08-11T12:01:19.368Z,56.27
2023-08-11T12:03:48.233Z,56.87
2023-08-11T12:06:19.210Z,56.94
2023-08-11T12:08:50.121Z,55.09
2023-08-11T12:11:26.394Z,55.46
2023-08-11T12:13:54.212Z,54.48
2023-08-11T12:16:23.575Z,53.70
2023-08-11T12:18:51.436Z,54.87
2023-08-11T12:21:19.216Z,54.34
2023-08-11T12:23:48.212Z,54.04
2023-08-11T12:26:15.823Z,53.20
2023-08-11T12:28:43.462Z,54.01
2023-08-11T12:31:13.050Z,55.23
2023-08-11T12:33:42.215Z,54.99
2023-08-11T12:36:10.063Z,54.94
2023-08-11T12:38:37.989Z,54.23
2023-08-11T12:41:07.036Z,55.12
2023-08-11T12:43:34.706Z,54.39
2023-08-11T12:46:02.456Z,53.16
2023-08-11T12:48:30.192Z,53.90
2023-08-11T12:50:57.856Z,52.50
2023-08-11T12:53:25.726Z,52.30
2023-08-11T12:55:53.378Z,53.69
2023-08-11T12:58:22.421Z,53.89
2023-08-11T13:00:50.123Z,53.61
2023-08-11T13:03:17.853Z,53.45
2023-08-11T13:05:46.071Z,52.54
2023-08-11T13:08:13.755Z,52.61
2023-08-11T13:10:41.483Z,54.41
2023-08-11T13:13:10.786Z,54.58
2023-08-11T13:15:41.324Z,53.94
2023-08-11T13:18:09.088Z,53.84
2023-08-11T13:20:36.796Z,54.63
2023-08-11T13:23:04.822Z,54.13
2023-08-11T13:25:33.077Z,54.33
2023-08-11T13:28:00.702Z,53.07
2023-08-11T13:30:31.945Z,52.65
2023-08-11T13:33:01.466Z,53.23
2023-08-11T13:35:29.105Z,53.56
2023-08-11T13:37:56.770Z,53.54
2023-08-11T13:40:24.908Z,53.84
2023-08-11T13:42:52.607Z,54.98
2023-08-11T13:45:20.286Z,54.93
2023-08-11T13:47:48.166Z,53.98
2023-08-11T13:50:17.304Z,54.75
2023-08-11T13:52:45.666Z,54.39
2023-08-11T13:55:13.365Z,53.83
2023-08-11T13:57:41.170Z,54.24
2023-08-11T14:00:13.399Z,54.54
2023-08-11T14:02:41.156Z,53.70
2023-08-11T14:05:09.724Z,53.38
2023-08-11T14:07:38.805Z,54.19
2023-08-11T14:10:07.372Z,54.85
2023-08-11T14:12:35.433Z,54.47
2023-08-11T14:15:03.111Z,53.60
2023-08-11T14:17:30.777Z,53.82
2023-08-11T14:19:58.458Z,53.34
2023-08-11T14:22:26.255Z,52.11
2023-08-11T14:24:55.996Z,54.15
2023-08-11T14:27:23.770Z,54.00
2023-08-11T14:29:51.975Z,53.39
2023-08-11T14:32:26.098Z,54.67
2023-08-11T14:34:54.467Z,54.35
2023-08-11T14:37:22.658Z,54.63
2023-08-11T14:39:50.348Z,55.02
2023-08-11T14:42:19.589Z,55.35
2023-08-11T14:44:47.381Z,55.05
2023-08-11T14:47:15.811Z,54.41
2023-08-11T14:49:43.849Z,56.07
2023-08-11T14:52:12.379Z,55.13
2023-08-11T14:54:40.434Z,55.69
2023-08-11T14:57:10.450Z,55.23
2023-08-11T14:59:40.129Z,57.00
2023-08-11T15:02:09.218Z,55.98
2023-08-11T15:04:37.234Z,56.59
2023-08-11T15:07:04.993Z,55.76
2023-08-11T15:09:32.730Z,56.01
2023-08-11T15:12:00.497Z,56.04
2023-08-11T15:14:28.285Z,55.29
2023-08-11T15:16:58.414Z,55.87
2023-08-11T15:19:26.098Z,55.47
2023-08-11T15:21:53.750Z,56.06
2023-08-11T15:24:21.384Z,55.73
2023-08-11T15:26:49.074Z,56.59
2023-08-11T15:29:16.845Z,56.64
2023-08-11T15:31:44.593Z,56.36
2023-08-11T15:34:13.583Z,55.88
2023-08-11T15:36:41.621Z,55.94
2023-08-11T15:39:09.605Z,56.00
2023-08-11T15:41:37.433Z,55.82
2023-08-11T15:44:05.676Z,55.24
2023-08-11T15:46:33.495Z,56.14
2023-08-11T15:49:01.407Z,55.93
2023-08-11T15:51:30.478Z,56.19
2023-08-11T15:53:58.114Z,55.50
2023-08-11T15:56:25.775Z,56.26
2023-08-11T15:58:56.647Z,55.79
2023-08-11T16:01:25.251Z,56.26
2023-08-11T16:03:53.550Z,56.29
2023-08-11T16:06:21.251Z,56.93
2023-08-11T16:08:50.265Z,57.19
2023-08-11T16:11:17.896Z,57.25
2023-08-11T16:13:45.676Z,56.01
2023-08-11T16:16:13.395Z,56.30
2023-08-11T16:18:41.132Z,55.95
2023-08-11T16:21:08.833Z,57.04
2023-08-11T16:23:36.742Z,56.72
2023-08-11T16:26:05.765Z,56.89
2023-08-11T16:28:33.924Z,56.23
2023-08-11T16:31:01.657Z,55.15
2023-08-11T16:33:29.460Z,55.81
2023-08-11T16:35:57.092Z,54.93
2023-08-11T16:38:24.751Z,54.21
2023-08-11T16:40:52.414Z,54.82
2023-08-11T16:43:21.500Z,55.15
2023-08-11T16:45:49.513Z,54.39
2023-08-11T16:48:19.861Z,52.99
2023-08-11T16:50:47.776Z,52.54
2023-08-11T16:53:15.426Z,53.01
2023-08-11T16:55:43.104Z,53.19
2023-08-11T16:58:10.747Z,52.33
2023-08-11T17:00:39.787Z,52.30
2023-08-11T17:03:07.522Z,52.96
2023-08-11T17:05:35.529Z,53.89
2023-08-11T17:08:03.202Z,54.31
2023-08-11T17:10:30.836Z,54.93
2023-08-11T17:12:58.501Z,54.83
2023-08-11T17:15:26.226Z,54.81
2023-08-11T17:17:55.245Z,55.01
2023-08-11T17:20:22.977Z,55.43
2023-08-11T17:22:50.633Z,56.23
2023-08-11T17:25:18.593Z,56.31
2023-08-11T17:27:46.434Z,56.09
2023-08-11T17:30:15.236Z,56.24
2023-08-11T17:32:43.761Z,56.51
2023-08-11T17:35:12.804Z,57.34
2023-08-11T17:37:40.472Z,57.39
2023-08-11T17:40:09.897Z,58.60
2023-08-11T17:42:37.569Z,58.01
2023-08-11T17:45:06.078Z,58.96
2023-08-11T17:47:33.831Z,59.55
2023-08-11T17:50:01.599Z,59.87
2023-08-11T17:52:30.598Z,60.42
2023-08-11T17:54:58.264Z,60.89
2023-08-11T17:57:25.932Z,61.07
2023-08-11T17:59:53.699Z,61.23
2023-08-11T18:02:21.368Z,61.76
2023-08-11T18:04:49.158Z,61.88
2023-08-11T18:07:16.940Z,62.02
2023-08-11T18:09:46.005Z,62.85
2023-08-11T18:12:13.875Z,62.75
2023-08-11T18:14:53.833Z,63.05
2023-08-11T18:17:21.570Z,63.17
2023-08-11T18:19:49.322Z,63.47
2023-08-11T18:22:16.939Z,63.96
2023-08-11T18:24:46.323Z,64.26
2023-08-11T18:27:14.206Z,64.41
2023-08-11T18:29:41.994Z,64.49
2023-08-11T18:32:10.386Z,64.99
2023-08-11T18:34:38.569Z,65.68
2023-08-11T18:37:06.359Z,65.59
2023-08-11T18:39:34.002Z,66.08
2023-08-11T18:42:03.116Z,66.61
2023-08-11T18:44:31.014Z,66.77
2023-08-11T18:46:58.673Z,67.12
2023-08-11T18:49:28.131Z,67.29
2023-08-11T18:51:55.778Z,67.64
2023-08-11T18:54:23.618Z,67.66
2023-08-11T18:56:51.469Z,68.05
2023-08-11T18:59:20.497Z,68.26
2023-08-11T19:01:48.394Z,68.67
2023-08-11T19:04:16.239Z,69.31
2023-08-11T19:06:44.386Z,69.56
2023-08-11T19:09:12.071Z,69.38
2023-08-11T19:11:39.910Z,69.59
2023-08-11T19:14:08.520Z,69.84
2023-08-11T19:16:38.030Z,70.20
2023-08-11T19:19:06.130Z,70.24
2023-08-11T19:21:33.757Z,70.21
2023-08-11T19:24:01.371Z,70.20
2023-08-11T19:26:29.158Z,70.41
2023-08-11T19:28:57.419Z,70.86
2023-08-11T19:31:25.090Z,71.17
2023-08-11T19:33:54.174Z,71.33
2023-08-11T19:36:21.833Z,71.15
2023-08-11T19:38:49.464Z,71.80
2023-08-11T19:41:17.107Z,72.02
2023-08-11T19:43:44.763Z,72.07
2023-08-11T19:46:12.548Z,72.26
2023-08-11T19:48:40.879Z,72.62
2023-08-11T19:51:09.865Z,72.64
2023-08-11T19:53:37.508Z,72.67
2023-08-11T19:56:05.847Z,72.80
2023-08-11T19:58:33.462Z,72.90
2023-08-11T20:01:01.140Z,73.19
2023-08-11T20:03:28.844Z,73.57
2023-08-11T20:05:56.509Z,72.95
2023-08-11T20:08:25.612Z,73.23
2023-08-11T20:10:53.268Z,73.42
2023-08-11T20:13:20.951Z,73.34
2023-08-11T20:15:48.793Z,73.42
2023-08-11T20:18:16.606Z,73.82
2023-08-11T20:20:45.349Z,73.53
2023-08-11T20:23:13.162Z,73.54
2023-08-11T20:25:42.081Z,73.20
2023-08-11T20:28:09.858Z,72.96
2023-08-11T20:30:37.856Z,72.91
2023-08-11T20:33:06.052Z,73.33
2023-08-11T20:35:33.716Z,73.38
2023-08-11T20:38:01.412Z,73.50
2023-08-11T20:40:29.106Z,73.70
2023-08-11T20:42:58.137Z,73.64
2023-08-11T20:45:30.675Z,73.34
2023-08-11T20:48:01.033Z,73.29
2023-08-11T20:50:28.946Z,73.35
2023-08-11T20:52:56.743Z,73.49
2023-08-11T20:55:24.407Z,73.30
2023-08-11T20:57:52.057Z,73.60
2023-08-11T21:00:21.285Z,73.68
2023-08-11T21:02:49.024Z,74.29
2023-08-11T21:05:17.078Z,74.66
2023-08-11T21:07:44.822Z,75.26
2023-08-11T21:10:15.875Z,76.08
2023-08-11T21:12:44.060Z,76.31
2023-08-11T21:15:12.004Z,76.68
2023-08-11T21:17:41.069Z,76.96
2023-08-11T21:20:10.026Z,77.49
2023-08-11T21:22:37.834Z,77.55
2023-08-11T21:25:05.990Z,77.75
2023-08-11T21:27:33.770Z,77.54
2023-08-11T21:30:01.578Z,78.37
2023-08-11T21:32:29.293Z,78.16
2023-08-11T21:34:58.376Z,78.05
2023-08-11T21:37:26.186Z,78.45
2023-08-11T21:39:53.950Z,79.01
2023-08-11T21:42:21.747Z,79.48
2023-08-11T21:44:49.436Z,79.67
2023-08-11T21:47:17.150Z,79.77
2023-08-11T21:49:44.904Z,79.65
2023-08-11T21:52:14.067Z,78.93
2023-08-11T21:54:41.741Z,78.02
2023-08-11T21:57:11.342Z,78.12
2023-08-11T21:59:41.880Z,77.98
2023-08-11T22:02:09.887Z,78.16
2023-08-11T22:04:38.338Z,78.56
2023-08-11T22:07:06.217Z,79.36
2023-08-11T22:09:35.286Z,79.38
2023-08-11T22:12:03.031Z,79.83
2023-08-11T22:14:30.706Z,80.08
2023-08-11T22:16:59.608Z,80.77
2023-08-11T22:19:27.531Z,81.09
2023-08-11T22:21:55.209Z,81.12
2023-08-11T22:24:34.656Z,80.65
2023-08-11T22:27:08.805Z,80.99
2023-08-11T22:29:36.981Z,81.92
2023-08-11T22:32:05.242Z,82.39
2023-08-11T22:34:32.998Z,84.14
2023-08-11T22:37:00.808Z,84.68
2023-08-11T22:39:28.577Z,84.51
2023-08-11T22:41:56.261Z,84.71
2023-08-11T22:44:25.308Z,84.87
2023-08-11T22:46:53.337Z,85.44
2023-08-11T22:49:21.051Z,86.01
2023-08-11T22:51:48.741Z,86.49
2023-08-11T22:54:16.514Z,86.26
2023-08-11T22:56:44.245Z,85.73
2023-08-11T22:59:11.927Z,86.49
2023-08-11T23:01:40.931Z,86.60
2023-08-11T23:04:08.798Z,85.80
2023-08-11T23:06:36.663Z,85.29
2023-08-11T23:09:04.640Z,84.18
2023-08-11T23:11:32.419Z,83.93
2023-08-11T23:14:00.112Z,83.38
2023-08-11T23:16:28.098Z,83.37
2023-08-11T23:18:57.178Z,83.58
2023-08-11T23:21:24.932Z,84.12
2023-08-11T23:23:52.599Z,83.95
2023-08-11T23:26:20.312Z,84.22
2023-08-11T23:28:48.265Z,84.43
2023-08-11T23:31:17.513Z,85.11
2023-08-11T23:33:45.421Z,85.58
2023-08-11T23:36:14.486Z,85.83
2023-08-11T23:38:42.196Z,87.41
2023-08-11T23:41:09.850Z,88.37
2023-08-11T23:43:37.787Z,89.24
2023-08-11T23:46:08.092Z,90.26
2023-08-11T23:48:35.957Z,89.21
2023-08-11T23:51:03.720Z,89.45
2023-08-11T23:53:32.757Z,89.20
2023-08-11T23:56:00.630Z,89.13
2023-08-11T23:58:28.508Z,89.75
